createdAt,value
2023-02-23T00:02:21.391Z,3.54
2023-02-23T00:04:49.487Z,3.54
2023-02-23T00:07:20.537Z,3.55
2023-02-23T00:09:48.708Z,3.56
2023-02-23T00:12:17.488Z,3.59
2023-02-23T00:14:46.296Z,3.60
2023-02-23T00:17:15.116Z,3.59
2023-02-23T00:19:43.990Z,3.51
2023-02-23T00:22:12.866Z,3.43
2023-02-23T00:24:43.002Z,3.41
2023-02-23T00:27:17.566Z,3.35
2023-02-23T00:29:49.588Z,3.31
2023-02-23T00:32:22.346Z,3.26
2023-02-23T00:34:52.590Z,3.18
2023-02-23T00:37:23.020Z,3.12
2023-02-23T00:39:52.232Z,3.07
2023-02-23T00:42:20.769Z,3.00
2023-02-23T00:44:49.793Z,2.91
2023-02-23T00:47:18.192Z,2.87
2023-02-23T00:49:46.196Z,2.80
2023-02-23T00:52:14.974Z,2.79
2023-02-23T00:54:43.279Z,2.74
2023-02-23T00:57:11.490Z,2.69
2023-02-23T00:59:39.847Z,2.65
2023-02-23T01:02:08.048Z,2.65
2023-02-23T01:04:36.501Z,2.64
2023-02-23T01:07:06.645Z,2.62
2023-02-23T01:09:35.002Z,2.62
2023-02-23T01:12:07.669Z,2.62
2023-02-23T01:14:38.038Z,2.58
2023-02-23T01:17:06.169Z,2.57
2023-02-23T01:19:34.259Z,2.56
2023-02-23T01:22:04.963Z,2.52
2023-02-23T01:24:33.049Z,2.48
2023-02-23T01:27:02.548Z,2.48
2023-02-23T01:29:30.500Z,2.41
2023-02-23T01:31:58.692Z,2.40
2023-02-23T01:34:27.173Z,2.38
2023-02-23T01:36:55.261Z,2.36
2023-02-23T01:39:25.372Z,2.32
2023-02-23T01:41:54.567Z,2.33
2023-02-23T01:44:31.297Z,2.34
2023-02-23T01:46:59.524Z,2.37
2023-02-23T01:49:31.004Z,2.40
2023-02-23T01:52:08.071Z,2.43
2023-02-23T01:54:43.429Z,2.48
2023-02-23T01:57:14.753Z,2.46
2023-02-23T01:59:45.892Z,2.50
2023-02-23T02:02:16.207Z,2.51
2023-02-23T02:04:45.033Z,2.56
2023-02-23T02:07:18.401Z,2.55
2023-02-23T02:10:11.058Z,2.52
2023-02-23T02:12:44.455Z,2.51
2023-02-23T02:15:19.588Z,2.48
2023-02-23T02:18:33.511Z,2.45
2023-02-23T02:21:43.277Z,2.41
2023-02-23T02:24:14.427Z,2.41
2023-02-23T02:27:08.199Z,2.35
2023-02-23T02:29:56.128Z,2.34
2023-02-23T02:33:01.681Z,2.36
2023-02-23T02:35:38.192Z,2.38
2023-02-23T02:38:43.120Z,2.42
2023-02-23T02:41:20.891Z,2.43
2023-02-23T02:43:57.053Z,2.44
2023-02-23T02:46:31.578Z,2.49
2023-02-23T02:49:09.030Z,2.53
2023-02-23T02:51:47.025Z,2.56
2023-02-23T02:54:30.134Z,2.61
2023-02-23T02:57:02.382Z,2.63
2023-02-23T02:59:49.592Z,2.65
2023-02-23T03:02:41.934Z,2.65
2023-02-23T03:05:40.441Z,2.61
2023-02-23T03:08:36.548Z,2.57
2023-02-23T03:11:30.214Z,2.54
2023-02-23T03:14:22.464Z,2.48
2023-02-23T03:17:21.754Z,2.41
2023-02-23T03:20:44.960Z,2.37
2023-02-23T03:24:16.495Z,2.32
2023-02-23T03:27:20.709Z,2.24
2023-02-23T03:30:33.148Z,2.19
2023-02-23T03:33:26.483Z,2.15
2023-02-23T03:36:19.432Z,2.10
2023-02-23T03:39:42.702Z,2.05
2023-02-23T03:42:35.249Z,2.01
2023-02-23T03:45:32.031Z,1.96
2023-02-23T03:48:22.972Z,1.93
2023-02-23T03:51:15.926Z,1.88
2023-02-23T03:54:13.010Z,1.85
2023-02-23T03:57:05.756Z,1.83
2023-02-23T04:00:02.098Z,1.83
2023-02-23T04:02:53.159Z,1.83
2023-02-23T04:05:42.985Z,1.88
2023-02-23T04:08:33.582Z,1.93
2023-02-23T04:11:37.188Z,2.01
2023-02-23T04:14:13.684Z,2.04
2023-02-23T04:16:42.817Z,2.02
2023-02-23T04:19:12.050Z,1.94
2023-02-23T04:21:40.218Z,1.88
2023-02-23T04:24:09.629Z,1.88
2023-02-23T04:26:38.514Z,1.83
2023-02-23T04:29:06.483Z,1.79
2023-02-23T04:31:34.851Z,1.81
2023-02-23T04:34:05.085Z,1.76
2023-02-23T04:36:33.471Z,1.71
2023-02-23T04:39:01.546Z,1.71
2023-02-23T04:41:29.696Z,1.69
2023-02-23T04:43:57.802Z,1.66
2023-02-23T04:46:26.056Z,1.65
2023-02-23T04:48:54.170Z,1.68
2023-02-23T04:51:22.305Z,1.71
2023-02-23T04:53:50.687Z,1.75
2023-02-23T04:56:18.617Z,1.81
2023-02-23T04:58:46.644Z,1.85
2023-02-23T05:01:15.179Z,1.88
2023-02-23T05:03:43.798Z,1.86
2023-02-23T05:06:13.007Z,1.87
2023-02-23T05:08:41.063Z,1.89
2023-02-23T05:11:09.754Z,1.92
2023-02-23T05:13:38.847Z,1.95
2023-02-23T05:16:07.579Z,1.99
2023-02-23T05:18:35.724Z,2.03
2023-02-23T05:21:08.621Z,2.04
2023-02-23T05:23:37.397Z,2.04
2023-02-23T05:26:11.391Z,2.07
2023-02-23T05:28:41.872Z,2.09
2023-02-23T05:31:10.922Z,2.15
2023-02-23T05:33:45.915Z,2.20
2023-02-23T05:36:17.656Z,2.24
2023-02-23T05:38:46.782Z,2.30
2023-02-23T05:41:18.393Z,2.34
2023-02-23T05:43:47.778Z,2.39
2023-02-23T05:46:19.717Z,2.44
2023-02-23T05:48:49.058Z,2.52
2023-02-23T05:51:19.143Z,2.55
2023-02-23T05:53:47.310Z,2.54
2023-02-23T05:56:23.282Z,2.47
2023-02-23T05:58:54.521Z,2.35
2023-02-23T06:01:22.903Z,2.29
2023-02-23T06:03:51.380Z,2.28
2023-02-23T06:06:20.493Z,2.39
2023-02-23T06:08:48.442Z,2.56
2023-02-23T06:11:16.430Z,2.67
2023-02-23T06:13:44.824Z,2.78
2023-02-23T06:16:12.945Z,2.87
2023-02-23T06:18:41.562Z,2.98
2023-02-23T06:21:09.517Z,3.08
2023-02-23T06:23:38.314Z,3.23
2023-02-23T06:26:06.480Z,3.37
2023-02-23T06:28:34.449Z,3.52
2023-02-23T06:31:02.715Z,3.68
2023-02-23T06:33:30.810Z,3.81
2023-02-23T06:35:58.803Z,3.94
2023-02-23T06:38:27.989Z,4.04
2023-02-23T06:40:56.037Z,4.21
2023-02-23T06:43:24.122Z,4.37
2023-02-23T06:45:52.402Z,4.52
2023-02-23T06:48:20.598Z,4.65
2023-02-23T06:50:48.745Z,4.76
2023-02-23T06:53:16.767Z,4.88
2023-02-23T06:55:44.763Z,5.04
2023-02-23T06:58:13.057Z,5.23
2023-02-23T07:00:43.774Z,5.44
2023-02-23T07:03:12.068Z,5.68
2023-02-23T07:05:41.167Z,5.91
2023-02-23T07:08:09.447Z,6.17
2023-02-23T07:10:37.468Z,6.42
2023-02-23T07:13:05.486Z,6.75
2023-02-23T07:15:35.877Z,7.25
2023-02-23T07:18:03.978Z,8.08
2023-02-23T07:20:33.262Z,9.03
2023-02-23T07:23:02.270Z,10.02
2023-02-23T07:25:31.154Z,10.97
2023-02-23T07:27:59.351Z,11.27
2023-02-23T07:30:27.467Z,11.01
2023-02-23T07:32:55.583Z,10.71
2023-02-23T07:35:23.550Z,10.42
2023-02-23T07:37:51.718Z,10.16
2023-02-23T07:40:20.312Z,9.88
2023-02-23T07:42:48.506Z,9.59
2023-02-23T07:45:17.610Z,9.36
2023-02-23T07:47:45.652Z,9.17
2023-02-23T07:50:14.746Z,9.04
2023-02-23T07:52:43.545Z,8.97
2023-02-23T07:55:12.239Z,8.94
2023-02-23T07:57:40.506Z,8.89
2023-02-23T08:00:09.506Z,8.91
2023-02-23T08:02:44.324Z,8.87
2023-02-23T08:05:13.121Z,8.76
2023-02-23T08:07:41.186Z,8.66
2023-02-23T08:10:10.096Z,8.60
2023-02-23T08:12:38.385Z,8.59
2023-02-23T08:15:08.403Z,8.57
2023-02-23T08:17:37.671Z,8.52
2023-02-23T08:20:06.770Z,8.46
2023-02-23T08:22:48.404Z,8.48
2023-02-23T08:25:18.435Z,8.52
2023-02-23T08:27:47.589Z,8.61
2023-02-23T08:30:16.866Z,8.70
2023-02-23T08:32:45.472Z,8.80
2023-02-23T08:35:14.054Z,8.87
2023-02-23T08:37:42.037Z,8.89
2023-02-23T08:40:11.622Z,8.88
2023-02-23T08:42:39.704Z,8.98
2023-02-23T08:45:08.829Z,9.14
2023-02-23T08:47:37.167Z,9.23
2023-02-23T08:50:05.852Z,9.28
2023-02-23T08:52:34.330Z,9.36
2023-02-23T08:55:02.681Z,9.42
2023-02-23T08:57:33.755Z,9.42
2023-02-23T09:00:02.445Z,9.46
2023-02-23T09:02:30.601Z,9.57
2023-02-23T09:04:59.398Z,9.68
2023-02-23T09:07:27.579Z,9.78
2023-02-23T09:09:56.824Z,9.89
2023-02-23T09:12:25.474Z,9.96
2023-02-23T09:14:54.219Z,10.04
2023-02-23T09:17:23.343Z,10.15
2023-02-23T09:19:51.300Z,10.32
2023-02-23T09:22:20.007Z,10.50
2023-02-23T09:24:48.178Z,10.68
2023-02-23T09:27:16.247Z,10.83
2023-02-23T09:29:44.834Z,10.89
2023-02-23T09:32:13.187Z,10.99
2023-02-23T09:34:41.791Z,11.12
2023-02-23T09:37:09.717Z,11.25
2023-02-23T09:39:39.078Z,11.38
2023-02-23T09:42:17.261Z,11.44
2023-02-23T09:44:55.175Z,11.48
2023-02-23T09:47:30.851Z,11.54
2023-02-23T09:50:09.320Z,11.63
2023-02-23T09:52:54.735Z,11.75
2023-02-23T09:55:22.750Z,11.93
2023-02-23T09:57:50.964Z,12.04
2023-02-23T10:00:24.319Z,12.28
2023-02-23T10:03:24.728Z,12.56
2023-02-23T10:05:59.089Z,12.77
2023-02-23T10:09:05.382Z,12.93
2023-02-23T10:11:46.243Z,13.23
2023-02-23T10:14:17.181Z,13.43
2023-02-23T10:17:03.451Z,13.51
2023-02-23T10:19:44.661Z,13.59
2023-02-23T10:22:15.781Z,13.57
2023-02-23T10:24:51.237Z,13.75
2023-02-23T10:27:29.492Z,14.00
2023-02-23T10:30:02.012Z,14.06
2023-02-23T10:32:48.964Z,14.12
2023-02-23T10:35:21.131Z,14.28
2023-02-23T10:37:51.758Z,14.42
2023-02-23T10:40:26.334Z,14.61
2023-02-23T10:42:58.850Z,14.80
2023-02-23T10:45:28.692Z,15.09
2023-02-23T10:48:07.096Z,15.37
2023-02-23T10:50:39.295Z,15.80
2023-02-23T10:53:17.967Z,16.25
2023-02-23T10:55:47.486Z,16.65
2023-02-23T10:58:18.383Z,16.99
2023-02-23T11:01:03.552Z,17.47
2023-02-23T11:03:43.157Z,18.26
2023-02-23T11:06:34.039Z,19.17
2023-02-23T11:09:45.003Z,20.50
2023-02-23T11:12:29.742Z,22.03
2023-02-23T11:14:59.493Z,23.12
2023-02-23T11:17:36.976Z,23.62
2023-02-23T11:20:23.064Z,23.93
2023-02-23T11:22:52.398Z,24.24
2023-02-23T11:25:31.868Z,24.44
2023-02-23T11:28:01.083Z,24.65
2023-02-23T11:30:43.037Z,24.77
2023-02-23T11:33:18.032Z,24.72
2023-02-23T11:35:46.822Z,24.51
2023-02-23T11:38:27.842Z,24.38
2023-02-23T11:41:04.734Z,24.09
2023-02-23T11:43:33.175Z,24.15
2023-02-23T11:46:02.670Z,24.14
2023-02-23T11:48:38.788Z,24.34
2023-02-23T11:51:07.817Z,24.51
2023-02-23T11:53:45.306Z,24.59
2023-02-23T11:56:21.145Z,24.61
2023-02-23T11:58:58.055Z,24.53
2023-02-23T12:01:47.024Z,24.22
2023-02-23T12:04:30.429Z,23.87
2023-02-23T12:07:17.162Z,23.61
2023-02-23T12:09:47.878Z,23.18
2023-02-23T12:12:21.992Z,22.92
2023-02-23T12:14:57.147Z,22.64
2023-02-23T12:17:29.733Z,22.34
2023-02-23T12:20:11.185Z,22.14
2023-02-23T12:22:44.809Z,22.12
2023-02-23T12:25:41.039Z,21.97
2023-02-23T12:28:32.354Z,22.11
2023-02-23T12:31:16.795Z,21.98
2023-02-23T12:33:50.823Z,21.63
2023-02-23T12:36:30.154Z,21.34
2023-02-23T12:39:04.882Z,21.19
2023-02-23T12:41:43.918Z,21.07
2023-02-23T12:44:49.421Z,20.82
2023-02-23T12:47:31.857Z,20.49
2023-02-23T12:50:14.440Z,19.97
2023-02-23T12:52:49.636Z,19.70
2023-02-23T12:55:28.122Z,19.36
2023-02-23T12:58:06.231Z,19.17
2023-02-23T13:00:58.621Z,19.15
2023-02-23T13:03:37.622Z,19.10
2023-02-23T13:06:14.183Z,18.94
2023-02-23T13:09:03.361Z,19.06
2023-02-23T13:11:40.741Z,19.25
2023-02-23T13:14:26.440Z,19.48
2023-02-23T13:17:04.936Z,19.48
2023-02-23T13:19:42.486Z,19.39
2023-02-23T13:22:28.736Z,19.34
2023-02-23T13:25:04.594Z,19.28
2023-02-23T13:27:43.303Z,19.31
2023-02-23T13:30:12.485Z,19.12
2023-02-23T13:32:40.661Z,19.00
2023-02-23T13:35:20.488Z,19.00
2023-02-23T13:38:22.695Z,19.00
2023-02-23T13:40:58.886Z,18.90
2023-02-23T13:43:47.616Z,18.84
2023-02-23T13:46:22.372Z,18.83
2023-02-23T13:49:12.335Z,18.85
2023-02-23T13:51:50.647Z,18.63
2023-02-23T13:54:22.874Z,18.63
2023-02-23T13:56:55.448Z,18.46
2023-02-23T13:59:29.786Z,18.29
2023-02-23T14:02:02.199Z,18.13
2023-02-23T14:04:42.120Z,17.89
2023-02-23T14:07:10.312Z,17.74
2023-02-23T14:09:44.425Z,17.53
2023-02-23T14:12:20.779Z,17.35
2023-02-23T14:14:49.056Z,17.10
2023-02-23T14:17:19.905Z,16.81
2023-02-23T14:20:24.292Z,16.71
2023-02-23T14:23:15.128Z,16.87
2023-02-23T14:25:50.870Z,17.09
2023-02-23T14:28:27.754Z,16.96
2023-02-23T14:31:11.207Z,16.92
2023-02-23T14:33:42.756Z,16.92
2023-02-23T14:36:29.021Z,16.88
2023-02-23T14:38:57.078Z,16.67
2023-02-23T14:41:29.897Z,16.43
2023-02-23T14:44:17.140Z,16.16
2023-02-23T14:46:57.414Z,15.92
2023-02-23T14:49:28.213Z,15.68
2023-02-23T14:52:00.692Z,15.46
2023-02-23T14:54:32.657Z,15.30
2023-02-23T14:57:03.696Z,15.11
2023-02-23T14:59:42.670Z,14.95
2023-02-23T15:02:24.174Z,14.69
2023-02-23T15:04:53.054Z,14.49
2023-02-23T15:07:31.406Z,14.38
2023-02-23T15:10:01.728Z,14.23
2023-02-23T15:12:38.004Z,14.09
2023-02-23T15:15:18.052Z,13.87
2023-02-23T15:17:48.375Z,13.71
2023-02-23T15:20:32.701Z,13.56
2023-02-23T15:23:04.934Z,13.36
2023-02-23T15:25:36.852Z,13.11
2023-02-23T15:28:21.774Z,12.91
2023-02-23T15:30:51.239Z,12.76
2023-02-23T15:33:29.331Z,12.64
2023-02-23T15:36:07.178Z,12.58
2023-02-23T15:38:43.968Z,12.42
2023-02-23T15:41:19.463Z,12.29
2023-02-23T15:43:47.976Z,12.13
2023-02-23T15:46:25.232Z,11.96
2023-02-23T15:48:55.869Z,11.81
2023-02-23T15:51:38.216Z,11.67
2023-02-23T15:54:25.378Z,11.53
2023-02-23T15:57:14.274Z,11.40
2023-02-23T15:59:48.071Z,11.26
2023-02-23T16:02:19.537Z,11.14
2023-02-23T16:04:54.011Z,11.05
2023-02-23T16:07:43.589Z,10.90
2023-02-23T16:10:25.795Z,10.81
2023-02-23T16:12:55.114Z,10.73
2023-02-23T16:15:35.616Z,10.62
2023-02-23T16:18:12.963Z,10.53
2023-02-23T16:20:45.696Z,10.38
2023-02-23T16:23:35.641Z,10.27
2023-02-23T16:26:07.190Z,10.17
2023-02-23T16:28:37.303Z,10.08
2023-02-23T16:31:07.867Z,9.97
2023-02-23T16:33:53.107Z,9.84
2023-02-23T16:36:24.970Z,9.70
2023-02-23T16:38:53.037Z,9.63
2023-02-23T16:41:22.436Z,9.57
2023-02-23T16:43:52.866Z,9.54
2023-02-23T16:46:24.890Z,9.48
2023-02-23T16:48:53.116Z,9.42
2023-02-23T16:51:23.845Z,9.39
2023-02-23T16:53:53.304Z,9.35
2023-02-23T16:56:22.552Z,9.30
2023-02-23T16:58:58.406Z,9.27
2023-02-23T17:01:26.697Z,9.24
2023-02-23T17:03:55.063Z,9.22
2023-02-23T17:06:23.442Z,9.21
2023-02-23T17:08:58.064Z,9.20
2023-02-23T17:11:27.080Z,9.19
2023-02-23T17:13:55.251Z,9.22
2023-02-23T17:16:23.600Z,9.22
2023-02-23T17:18:51.988Z,9.23
2023-02-23T17:21:24.010Z,9.26
2023-02-23T17:23:53.561Z,9.28
2023-02-23T17:26:25.657Z,9.29
2023-02-23T17:28:54.203Z,9.19
2023-02-23T17:31:27.249Z,9.08
2023-02-23T17:33:55.977Z,9.01
2023-02-23T17:36:24.152Z,8.94
2023-02-23T17:38:58.652Z,8.87
2023-02-23T17:41:27.505Z,8.79
2023-02-23T17:43:58.506Z,8.73
2023-02-23T17:46:26.711Z,8.70
2023-02-23T17:48:56.193Z,8.61
2023-02-23T17:51:24.896Z,8.56
2023-02-23T17:53:53.766Z,8.54
2023-02-23T17:56:23.773Z,8.53
2023-02-23T17:58:51.957Z,8.52
2023-02-23T18:01:20.412Z,8.54
2023-02-23T18:03:50.148Z,8.54
2023-02-23T18:06:19.870Z,8.51
2023-02-23T18:08:48.228Z,8.51
2023-02-23T18:11:18.966Z,8.52
2023-02-23T18:13:51.440Z,8.53
2023-02-23T18:16:20.649Z,8.51
2023-02-23T18:18:49.527Z,8.50
2023-02-23T18:21:20.672Z,8.50
2023-02-23T18:23:50.322Z,8.46
2023-02-23T18:26:22.280Z,8.47
2023-02-23T18:28:51.424Z,8.46
2023-02-23T18:31:22.558Z,8.45
2023-02-23T18:33:53.049Z,8.46
2023-02-23T18:36:35.199Z,8.45
2023-02-23T18:39:08.301Z,8.46
2023-02-23T18:41:37.408Z,8.45
2023-02-23T18:44:08.436Z,8.40
2023-02-23T18:46:36.850Z,8.27
2023-02-23T18:49:06.261Z,8.23
2023-02-23T18:51:34.302Z,8.21
2023-02-23T18:54:09.109Z,8.18
2023-02-23T18:56:37.959Z,8.17
2023-02-23T18:59:06.503Z,8.17
2023-02-23T19:01:37.746Z,8.17
2023-02-23T19:04:08.029Z,8.15
2023-02-23T19:06:39.030Z,8.14
2023-02-23T19:09:13.964Z,8.12
2023-02-23T19:11:43.647Z,8.10
2023-02-23T19:14:16.121Z,8.03
2023-02-23T19:16:46.926Z,7.95
2023-02-23T19:19:17.369Z,7.90
2023-02-23T19:21:45.874Z,7.84
2023-02-23T19:24:13.944Z,7.77
2023-02-23T19:26:46.622Z,7.73
2023-02-23T19:29:14.589Z,7.69
2023-02-23T19:31:42.614Z,7.67
2023-02-23T19:34:10.836Z,7.68
2023-02-23T19:36:40.341Z,7.69
2023-02-23T19:39:11.293Z,7.66
2023-02-23T19:41:40.275Z,7.63
2023-02-23T19:44:10.931Z,7.61
2023-02-23T19:46:43.168Z,7.60
2023-02-23T19:49:11.971Z,7.60
2023-02-23T19:51:40.762Z,7.50
2023-02-23T19:54:08.931Z,7.41
2023-02-23T19:56:38.637Z,7.36
2023-02-23T19:59:06.621Z,7.30
2023-02-23T20:01:36.178Z,7.29
2023-02-23T20:04:09.516Z,7.26
2023-02-23T20:06:47.273Z,7.21
2023-02-23T20:09:15.705Z,7.15
2023-02-23T20:11:43.980Z,7.12
2023-02-23T20:14:12.615Z,7.06
2023-02-23T20:16:40.759Z,6.92
2023-02-23T20:19:09.222Z,6.91
2023-02-23T20:21:37.506Z,6.81
2023-02-23T20:24:06.176Z,6.83
2023-02-23T20:26:37.288Z,6.82
2023-02-23T20:29:11.062Z,6.74
2023-02-23T20:31:42.837Z,6.74
2023-02-23T20:34:12.226Z,6.73
2023-02-23T20:36:40.356Z,6.74
2023-02-23T20:39:10.699Z,6.66
2023-02-23T20:41:44.179Z,6.62
2023-02-23T20:44:14.087Z,6.58
2023-02-23T20:46:43.924Z,6.41
2023-02-23T20:49:18.533Z,6.32
2023-02-23T20:51:48.717Z,6.30
2023-02-23T20:54:17.090Z,6.19
2023-02-23T20:56:45.210Z,6.18
2023-02-23T20:59:14.100Z,6.20
2023-02-23T21:01:43.860Z,6.11
2023-02-23T21:04:13.296Z,6.06
2023-02-23T21:06:41.488Z,6.05
2023-02-23T21:09:18.149Z,6.02
2023-02-23T21:11:48.046Z,6.05
2023-02-23T21:14:17.632Z,6.06
2023-02-23T21:16:47.039Z,6.09
2023-02-23T21:19:17.438Z,6.04
2023-02-23T21:21:51.109Z,6.04
2023-02-23T21:24:19.518Z,6.05
2023-02-23T21:26:48.066Z,6.00
2023-02-23T21:29:16.809Z,6.01
2023-02-23T21:31:46.942Z,6.02
2023-02-23T21:34:21.504Z,6.05
2023-02-23T21:36:52.027Z,6.02
2023-02-23T21:39:21.667Z,5.98
2023-02-23T21:41:50.037Z,5.98
2023-02-23T21:44:18.204Z,5.96
2023-02-23T21:46:46.398Z,5.95
2023-02-23T21:49:14.647Z,5.93
2023-02-23T21:51:42.826Z,5.89
2023-02-23T21:54:11.713Z,5.86
2023-02-23T21:56:39.832Z,5.87
2023-02-23T21:59:11.021Z,5.81
2023-02-23T22:01:40.927Z,5.82
2023-02-23T22:04:13.938Z,5.79
2023-02-23T22:06:44.360Z,5.71
2023-02-23T22:09:15.754Z,5.70
2023-02-23T22:11:47.246Z,5.69
2023-02-23T22:14:18.882Z,5.66
2023-02-23T22:16:47.975Z,5.62
2023-02-23T22:19:19.519Z,5.61
2023-02-23T22:21:48.550Z,5.57
2023-02-23T22:24:17.782Z,5.53
2023-02-23T22:26:50.662Z,5.53
2023-02-23T22:29:18.820Z,5.53
2023-02-23T22:31:47.282Z,5.52
2023-02-23T22:34:15.881Z,5.51
2023-02-23T22:36:44.457Z,5.48
2023-02-23T22:39:16.531Z,5.46
2023-02-23T22:41:46.389Z,5.43
2023-02-23T22:44:17.644Z,5.44
2023-02-23T22:46:48.296Z,5.40
2023-02-23T22:49:19.972Z,5.37
2023-02-23T22:51:50.586Z,5.38
2023-02-23T22:54:20.730Z,5.37
2023-02-23T22:56:49.016Z,5.31
2023-02-23T22:59:20.763Z,5.24
2023-02-23T23:01:50.524Z,5.19
2023-02-23T23:04:22.173Z,5.16
2023-02-23T23:06:50.719Z,5.13
2023-02-23T23:09:21.323Z,5.09
2023-02-23T23:11:50.980Z,5.08
2023-02-23T23:14:19.737Z,5.07
2023-02-23T23:16:48.533Z,4.99
2023-02-23T23:19:24.041Z,4.89
2023-02-23T23:21:55.459Z,4.86
2023-02-23T23:24:24.713Z,4.84
2023-02-23T23:26:55.543Z,4.82
2023-02-23T23:29:26.066Z,4.80
2023-02-23T23:31:56.998Z,4.76
2023-02-23T23:34:25.536Z,4.76
2023-02-23T23:36:55.360Z,4.78
2023-02-23T23:39:26.124Z,4.75
2023-02-23T23:41:54.960Z,4.72
2023-02-23T23:44:28.985Z,4.70
2023-02-23T23:46:58.179Z,4.70
2023-02-23T23:49:26.225Z,4.63
2023-02-23T23:51:58.872Z,4.64
2023-02-23T23:54:32.580Z,4.61
2023-02-23T23:57:01.664Z,4.44
2023-02-23T23:59:31.934Z,4.31
